createdAt,value
2022-08-18T00:10:06.456Z,7.00
2022-08-18T00:13:04.082Z,6.90
2022-08-18T00:15:52.598Z,6.43
2022-08-18T00:18:41.111Z,7.03
2022-08-18T00:21:29.653Z,7.20
2022-08-18T00:24:18.208Z,6.63
2022-08-18T00:27:10.468Z,7.03
2022-08-18T00:30:02.083Z,6.63
2022-08-18T00:32:53.291Z,6.30
2022-08-18T02:58:41.374Z,8.13
2022-08-18T03:01:32.753Z,9.43
2022-08-18T03:04:28.818Z,8.90
2022-08-18T03:07:18.505Z,8.03
2022-08-18T03:10:32.892Z,10.13
2022-08-18T03:13:17.586Z,8.23
2022-08-18T03:16:07.911Z,7.93
2022-08-18T03:18:56.425Z,8.57
2022-08-18T03:21:46.569Z,7.70
2022-08-18T03:24:36.192Z,8.63
2022-08-18T03:27:24.804Z,8.93
2022-08-18T03:30:13.795Z,8.33
2022-08-18T03:33:03.645Z,8.90
2022-08-18T03:35:52.328Z,8.03
2022-08-18T03:38:41.166Z,14.50
2022-08-18T03:41:43.677Z,8.53
2022-08-18T03:44:39.768Z,8.33
2022-08-18T03:47:28.322Z,8.80
2022-08-18T03:50:19.532Z,9.13
2022-08-18T03:53:08.058Z,7.97
2022-08-18T03:55:59.134Z,8.33
2022-08-18T03:58:49.805Z,9.00
2022-08-18T04:01:43.345Z,8.83
2022-08-18T04:04:32.354Z,8.13
2022-08-18T04:07:25.261Z,9.37
2022-08-18T04:10:19.472Z,9.40
2022-08-18T04:13:08.350Z,9.03
2022-08-18T04:16:00.184Z,7.67
2022-08-18T04:18:48.728Z,8.93
2022-08-18T04:21:39.372Z,9.83
2022-08-18T04:24:31.850Z,9.30
2022-08-18T04:27:22.581Z,10.83
2022-08-18T04:30:13.809Z,9.77
2022-08-18T04:33:02.665Z,11.07
2022-08-18T04:35:51.165Z,8.87
2022-08-18T04:38:41.900Z,9.20
2022-08-18T04:41:32.093Z,9.30
2022-08-18T04:44:21.601Z,10.50
2022-08-18T04:47:11.069Z,9.20
2022-08-18T04:49:59.599Z,8.77
2022-08-18T04:53:05.753Z,9.60
2022-08-18T04:55:56.732Z,8.80
2022-08-18T04:58:52.540Z,9.17
2022-08-18T05:01:42.878Z,8.57
2022-08-18T05:04:31.859Z,10.20
2022-08-18T05:07:23.577Z,8.70
2022-08-18T05:10:12.559Z,8.70
2022-08-18T05:13:01.107Z,9.80
2022-08-18T05:16:10.070Z,8.73
2022-08-18T05:19:06.103Z,9.63
2022-08-18T05:22:00.040Z,8.43
2022-08-18T05:24:52.221Z,8.63
2022-08-18T05:27:43.888Z,8.77
2022-08-18T05:30:32.380Z,9.17
2022-08-18T05:33:22.392Z,8.70
2022-08-18T05:36:20.836Z,9.60
2022-08-18T05:39:14.984Z,10.33
2022-08-18T05:42:07.256Z,9.70
2022-08-18T05:44:57.207Z,10.10
2022-08-18T05:47:45.940Z,10.97
2022-08-18T05:50:37.419Z,10.33
2022-08-18T05:53:45.965Z,9.47
2022-08-18T05:56:47.406Z,10.17
2022-08-18T05:59:37.769Z,10.00
2022-08-18T06:02:32.921Z,8.77
2022-08-18T06:05:25.330Z,9.33
2022-08-18T06:08:16.315Z,8.73
2022-08-18T06:11:05.481Z,8.90
2022-08-18T06:14:05.987Z,10.57
2022-08-18T06:16:59.658Z,8.33
2022-08-18T06:19:53.846Z,7.50
2022-08-18T06:22:55.195Z,8.10
2022-08-18T06:25:57.589Z,8.30
2022-08-18T06:28:56.165Z,7.43
2022-08-18T06:31:53.357Z,8.20
2022-08-18T06:34:50.357Z,7.97
2022-08-18T06:38:02.864Z,7.00
2022-08-18T06:41:02.792Z,7.23
2022-08-18T06:44:00.307Z,7.40
2022-08-18T06:46:53.672Z,8.23
2022-08-18T06:49:46.626Z,7.47
2022-08-18T06:52:36.963Z,7.50
2022-08-18T06:55:34.141Z,7.60
2022-08-18T06:58:29.950Z,6.83
2022-08-18T07:01:18.885Z,7.47
2022-08-18T07:04:07.463Z,7.53
2022-08-18T07:06:56.013Z,7.80
2022-08-18T07:09:44.592Z,7.33
2022-08-18T07:12:33.216Z,8.20
2022-08-18T07:15:25.917Z,7.30
2022-08-18T07:18:17.286Z,7.47
2022-08-18T07:21:05.997Z,8.47
2022-08-18T07:24:23.709Z,7.80
2022-08-18T07:27:12.736Z,7.70
2022-08-18T07:30:06.033Z,6.70
2022-08-18T07:33:00.632Z,8.43
2022-08-18T07:35:51.884Z,7.63
2022-08-18T07:38:44.515Z,7.47
2022-08-18T07:41:36.589Z,7.53
2022-08-18T07:44:28.761Z,8.83
2022-08-18T07:47:20.458Z,8.53
2022-08-18T07:50:36.303Z,9.27
2022-08-18T07:53:36.830Z,8.33
2022-08-18T07:56:35.558Z,7.97
2022-08-18T07:59:28.080Z,7.97
2022-08-18T08:02:30.002Z,8.10
2022-08-18T08:05:24.605Z,7.33
2022-08-18T08:08:24.935Z,8.67
2022-08-18T08:11:22.632Z,8.40
2022-08-18T08:14:26.151Z,7.40
2022-08-18T08:17:23.688Z,8.60
2022-08-18T08:20:20.497Z,7.37
2022-08-18T08:23:17.663Z,7.07
2022-08-18T08:26:24.820Z,7.17
2022-08-18T08:29:21.623Z,8.07
2022-08-18T08:32:13.563Z,9.63
2022-08-18T08:35:06.999Z,7.90
2022-08-18T08:38:08.220Z,8.37
2022-08-18T08:41:13.251Z,8.57
2022-08-18T08:44:07.579Z,8.83
2022-08-18T08:46:59.723Z,9.93
2022-08-18T08:49:57.477Z,8.43
2022-08-18T08:52:57.247Z,12.30
2022-08-18T08:55:48.856Z,9.00
2022-08-18T08:58:41.284Z,9.53
2022-08-18T09:01:34.626Z,9.53
2022-08-18T09:04:32.188Z,11.93
2022-08-18T09:07:35.729Z,9.77
2022-08-18T09:11:01.694Z,9.67
2022-08-18T09:14:04.957Z,9.03
2022-08-18T09:17:11.238Z,9.23
2022-08-18T09:20:16.533Z,9.40
2022-08-18T09:23:08.421Z,10.77
2022-08-18T09:26:00.684Z,9.80
2022-08-18T09:28:57.710Z,9.73
2022-08-18T09:31:47.332Z,10.97
2022-08-18T09:34:45.320Z,14.53
2022-08-18T09:37:45.671Z,11.53
2022-08-18T09:41:03.829Z,10.80
2022-08-18T09:44:18.079Z,11.20
2022-08-18T09:47:53.392Z,11.57
2022-08-18T09:51:18.746Z,10.63
2022-08-18T09:54:14.579Z,13.60
2022-08-18T09:57:22.310Z,11.07
2022-08-18T10:00:30.491Z,11.43
2022-08-18T10:03:30.970Z,12.10
2022-08-18T10:06:26.983Z,12.67
2022-08-18T10:09:36.034Z,12.63
2022-08-18T10:12:32.956Z,15.33
2022-08-18T10:15:37.448Z,14.37
2022-08-18T10:18:43.571Z,14.20
2022-08-18T10:22:18.474Z,15.00
2022-08-18T10:25:38.093Z,14.70
2022-08-18T10:28:54.347Z,15.73
2022-08-18T10:32:16.704Z,15.77
2022-08-18T10:35:07.296Z,16.40
2022-08-18T10:37:56.561Z,15.80
2022-08-18T10:40:55.468Z,16.60
2022-08-18T10:43:55.877Z,17.10
2022-08-18T10:46:51.446Z,15.90
2022-08-18T10:49:46.719Z,17.80
2022-08-18T10:53:10.176Z,17.83
2022-08-18T10:56:12.044Z,17.83
2022-08-18T10:59:16.170Z,15.23
2022-08-18T11:02:30.313Z,16.63
2022-08-18T11:05:24.261Z,17.40
2022-08-18T11:08:16.147Z,16.50
2022-08-18T11:14:43.807Z,17.53
2022-08-18T11:17:42.879Z,18.03
2022-08-18T11:20:33.356Z,18.00
2022-08-18T11:23:22.036Z,18.07
2022-08-18T11:26:18.421Z,17.33
2022-08-18T11:29:28.728Z,17.60
2022-08-18T11:32:21.559Z,14.90
2022-08-18T11:35:16.179Z,18.13
2022-08-18T11:38:13.584Z,16.33
2022-08-18T11:44:32.677Z,15.37
2022-08-18T11:47:27.450Z,15.63
2022-08-18T11:50:27.998Z,16.80
2022-08-18T11:53:24.228Z,14.67
2022-08-18T11:56:19.172Z,15.63
2022-08-18T11:59:53.140Z,13.63
2022-08-18T12:02:42.275Z,15.30
2022-08-18T12:05:53.987Z,17.70
2022-08-18T12:08:58.140Z,15.43
2022-08-18T12:11:52.347Z,16.60
2022-08-18T12:15:04.936Z,14.83
2022-08-18T12:18:00.503Z,15.40
2022-08-18T12:20:51.193Z,15.70
2022-08-18T12:23:44.619Z,14.10
2022-08-18T12:26:47.393Z,14.67
2022-08-18T12:29:36.673Z,13.07
2022-08-18T12:32:47.024Z,14.87
2022-08-18T12:35:44.766Z,13.67
2022-08-18T12:38:36.356Z,12.47
2022-08-18T12:41:25.575Z,12.30
2022-08-18T12:44:15.138Z,11.97
2022-08-18T12:47:12.064Z,12.20
2022-08-18T12:50:01.961Z,11.80
2022-08-18T12:52:53.152Z,13.03
2022-08-18T12:55:45.923Z,10.50
2022-08-18T12:58:36.324Z,9.37
2022-08-18T13:01:26.499Z,10.10
2022-08-18T13:07:26.550Z,10.10
2022-08-18T13:10:35.672Z,8.83
2022-08-18T13:13:25.000Z,10.83
2022-08-18T13:16:38.741Z,9.40
2022-08-18T13:19:26.884Z,11.10
2022-08-18T13:22:21.898Z,11.30
2022-08-18T13:25:32.448Z,11.70
2022-08-18T13:28:21.904Z,10.43
2022-08-18T13:31:10.448Z,10.20
2022-08-18T13:34:00.212Z,9.90
2022-08-18T13:36:52.699Z,9.97
2022-08-18T13:39:43.928Z,9.73
2022-08-18T13:42:50.653Z,9.67
2022-08-18T13:45:40.092Z,10.43
2022-08-18T13:48:30.450Z,9.10
2022-08-18T13:51:22.301Z,8.83
2022-08-18T13:54:30.399Z,9.53
2022-08-18T13:57:19.655Z,8.70
2022-08-18T14:00:18.475Z,9.70
2022-08-18T14:03:30.791Z,9.53
2022-08-18T14:09:19.715Z,8.77
2022-08-18T14:12:23.215Z,9.00
2022-08-18T14:15:16.423Z,9.77
2022-08-18T14:18:06.048Z,8.27
2022-08-18T14:21:12.307Z,9.50
2022-08-18T14:24:18.877Z,10.63
2022-08-18T14:27:13.565Z,10.70
2022-08-18T14:30:02.315Z,12.10
2022-08-18T14:32:53.388Z,12.03
2022-08-18T14:36:06.582Z,13.17
2022-08-18T14:38:51.945Z,11.20
2022-08-18T14:41:54.604Z,13.77
2022-08-18T14:44:45.793Z,12.17
2022-08-18T14:47:34.463Z,10.93
2022-08-18T14:50:27.440Z,11.50
2022-08-18T14:53:16.086Z,10.10
2022-08-18T14:56:07.789Z,11.60
2022-08-18T14:58:58.802Z,11.43
2022-08-18T15:01:47.406Z,12.63
2022-08-18T15:04:38.350Z,12.80
2022-08-18T15:07:29.283Z,12.27
2022-08-18T15:10:23.754Z,12.33
2022-08-18T15:13:17.211Z,12.30
2022-08-18T15:16:11.330Z,12.80
2022-08-18T15:19:00.374Z,13.10
2022-08-18T15:22:15.966Z,12.60
2022-08-18T15:25:24.492Z,14.10
2022-08-18T15:28:17.375Z,13.23
2022-08-18T15:31:16.999Z,12.70
2022-08-18T15:34:06.036Z,12.83
2022-08-18T15:36:55.713Z,13.73
2022-08-18T15:39:44.875Z,12.80
2022-08-18T15:42:35.849Z,14.00
2022-08-18T15:45:35.175Z,13.80
2022-08-18T15:48:25.093Z,13.83
2022-08-18T15:51:13.836Z,13.13
2022-08-18T15:54:06.502Z,13.17
2022-08-18T15:57:00.012Z,12.90
2022-08-18T15:59:49.972Z,12.47
2022-08-18T16:02:39.406Z,12.67
2022-08-18T16:05:30.601Z,13.30
2022-08-18T16:08:20.217Z,13.00
2022-08-18T16:11:11.306Z,13.23
2022-08-18T16:14:13.203Z,13.43
2022-08-18T16:17:09.102Z,13.23
2022-08-18T16:20:02.120Z,14.00
2022-08-18T16:22:51.498Z,14.63
2022-08-18T16:25:40.412Z,15.20
2022-08-18T16:28:34.830Z,14.83
2022-08-18T16:31:26.075Z,14.20
2022-08-18T16:34:15.996Z,14.87
2022-08-18T16:37:04.554Z,14.70
2022-08-18T16:39:53.171Z,15.90
2022-08-18T16:42:41.752Z,14.60
2022-08-18T16:45:32.815Z,14.03
2022-08-18T16:48:21.827Z,17.33
2022-08-18T16:51:15.371Z,16.03
2022-08-18T16:54:05.336Z,14.03
2022-08-18T16:56:53.877Z,14.17
2022-08-18T17:00:00.153Z,13.07
2022-08-18T17:03:06.300Z,13.43
2022-08-18T17:06:00.660Z,13.10
2022-08-18T17:08:50.546Z,11.57
2022-08-18T17:11:51.554Z,10.50
2022-08-18T17:14:40.674Z,10.43
2022-08-18T17:17:29.796Z,11.20
2022-08-18T17:20:19.257Z,11.20
2022-08-18T17:23:07.937Z,10.57
2022-08-18T17:25:58.742Z,10.80
2022-08-18T17:28:53.727Z,10.70
2022-08-18T17:31:45.417Z,9.73
2022-08-18T17:34:38.021Z,12.20
2022-08-18T17:37:30.333Z,11.20
2022-08-18T17:40:22.471Z,11.50
2022-08-18T17:43:15.026Z,12.33
2022-08-18T17:46:07.481Z,11.83
2022-08-18T17:48:59.912Z,13.87
2022-08-18T17:51:52.544Z,17.70
2022-08-18T17:54:45.902Z,11.50
2022-08-18T17:57:39.631Z,11.63
2022-08-18T18:00:31.634Z,12.33
2022-08-18T18:03:20.170Z,12.23
2022-08-18T18:06:11.657Z,10.87
2022-08-18T18:09:02.367Z,13.67
2022-08-18T18:11:50.859Z,12.23
2022-08-18T18:14:40.462Z,11.70
2022-08-18T18:17:32.425Z,11.53
2022-08-18T18:20:36.464Z,11.57
2022-08-18T18:23:31.212Z,11.37
2022-08-18T18:26:29.332Z,11.47
2022-08-18T18:29:21.362Z,11.73
2022-08-18T18:32:27.166Z,10.90
2022-08-18T18:35:19.710Z,10.73
2022-08-18T18:38:25.907Z,12.47
2022-08-18T18:41:25.332Z,12.70
2022-08-18T18:44:16.089Z,13.27
2022-08-18T18:47:08.791Z,13.77
2022-08-18T18:50:01.606Z,12.30
2022-08-18T18:53:00.632Z,11.37
2022-08-18T18:55:54.048Z,12.00
2022-08-18T18:58:50.217Z,14.30
2022-08-18T19:01:46.242Z,12.53
2022-08-18T19:04:38.547Z,12.70
2022-08-18T19:07:31.268Z,13.40
2022-08-18T19:10:27.344Z,15.03
2022-08-18T19:13:32.541Z,13.07
2022-08-18T19:16:26.349Z,12.40
2022-08-18T19:19:36.729Z,12.00
2022-08-18T19:22:32.413Z,13.07
2022-08-18T19:25:24.880Z,12.47
2022-08-18T19:28:18.450Z,12.40
2022-08-18T19:31:12.921Z,13.30
2022-08-18T19:34:08.554Z,11.50
2022-08-18T19:37:05.679Z,12.10
2022-08-18T19:40:03.342Z,12.97
2022-08-18T19:42:59.519Z,12.50
2022-08-18T19:45:51.511Z,12.57
2022-08-18T19:48:44.520Z,13.53
2022-08-18T19:51:37.414Z,12.47
2022-08-18T19:54:40.303Z,12.27
2022-08-18T19:57:47.467Z,14.07
2022-08-18T20:00:43.570Z,13.53
2022-08-18T20:04:03.663Z,12.83
2022-08-18T20:07:07.503Z,12.37
2022-08-18T20:10:04.790Z,12.00
2022-08-18T20:13:08.689Z,13.57
2022-08-18T20:16:35.443Z,13.40
2022-08-18T20:19:49.806Z,12.30
2022-08-18T20:22:42.418Z,13.83
2022-08-18T20:25:49.997Z,12.00
2022-08-18T20:28:40.690Z,14.47
2022-08-18T20:31:53.522Z,13.80
2022-08-18T20:34:48.771Z,15.10
2022-08-18T20:37:37.257Z,13.90
2022-08-18T20:40:39.892Z,14.97
2022-08-18T20:43:31.749Z,12.87
2022-08-18T20:46:29.165Z,13.40
2022-08-18T20:49:27.356Z,14.67
2022-08-18T20:52:24.257Z,14.47
2022-08-18T20:55:24.975Z,15.33
2022-08-18T20:58:15.851Z,15.33
2022-08-18T21:01:06.381Z,12.97
2022-08-18T21:03:54.960Z,15.33
2022-08-18T21:06:49.476Z,14.47
2022-08-18T21:09:38.744Z,14.90
2022-08-18T21:12:29.490Z,14.40
2022-08-18T21:15:18.057Z,15.07
2022-08-18T21:18:11.010Z,15.63
2022-08-18T21:21:00.244Z,13.90
2022-08-18T21:23:55.417Z,14.37
2022-08-18T21:26:47.451Z,14.73
2022-08-18T21:29:47.170Z,16.60
2022-08-18T21:32:39.552Z,17.03
2022-08-18T21:35:31.736Z,14.57
2022-08-18T21:38:26.731Z,16.43
2022-08-18T21:41:17.409Z,14.63
2022-08-18T21:44:08.517Z,14.67
2022-08-18T21:47:06.370Z,15.20
2022-08-18T21:50:00.716Z,14.67
2022-08-18T21:52:52.650Z,15.50
2022-08-18T21:55:45.081Z,12.80
2022-08-18T21:58:41.908Z,15.73
2022-08-18T22:01:31.507Z,17.17
2022-08-18T22:04:29.429Z,15.53
2022-08-18T22:07:34.747Z,15.67
2022-08-18T22:10:44.685Z,16.10
2022-08-18T22:14:03.227Z,16.47
2022-08-18T22:16:51.931Z,16.10
2022-08-18T22:19:40.994Z,17.30
2022-08-18T22:22:48.877Z,17.80
2022-08-18T22:25:37.476Z,17.10
2022-08-18T22:28:27.320Z,17.40
2022-08-18T22:31:21.104Z,16.33
2022-08-18T22:34:16.222Z,15.87
2022-08-18T22:37:10.212Z,16.20
2022-08-18T22:40:01.657Z,17.10
2022-08-18T22:42:50.389Z,16.83
2022-08-18T22:45:38.921Z,16.70
2022-08-18T22:48:28.783Z,17.20
2022-08-18T22:51:18.455Z,15.97
2022-08-18T22:54:09.794Z,18.53
2022-08-18T22:56:58.919Z,18.80
2022-08-18T22:59:48.949Z,17.53
2022-08-18T23:02:38.488Z,17.33
2022-08-18T23:05:28.573Z,17.10
2022-08-18T23:08:17.075Z,18.03
2022-08-18T23:11:06.433Z,17.23
2022-08-18T23:13:55.368Z,16.83
2022-08-18T23:16:45.483Z,16.87
2022-08-18T23:19:34.819Z,18.10
2022-08-18T23:22:24.735Z,17.20
2022-08-18T23:25:13.275Z,17.87
2022-08-18T23:28:02.314Z,17.80
2022-08-18T23:30:52.335Z,19.60
